createdAt,value
2022-11-23T08:17:01.344Z,4.85
2022-11-23T08:28:11.728Z,5.05
2022-11-23T08:39:21.532Z,5.24
2022-11-23T08:50:29.002Z,5.54
2022-11-23T09:01:39.972Z,5.93
2022-11-23T09:12:49.605Z,6.03
2022-11-23T09:23:59.871Z,6.22
2022-11-23T09:35:07.779Z,6.42
2022-11-23T09:46:09.193Z,6.22
2022-11-23T09:57:09.303Z,6.32
2022-11-23T10:08:11.639Z,6.12
2022-11-23T10:19:14.145Z,6.13
2022-11-23T10:30:16.652Z,6.32
2022-11-23T10:41:19.549Z,6.52
2022-11-23T10:52:18.672Z,6.42
2022-11-23T11:03:25.343Z,6.71
2022-11-23T11:14:26.827Z,6.61
2022-11-23T11:25:04.676Z,6.91
2022-11-23T11:36:07.604Z,7.10
2022-11-23T11:46:46.454Z,7.20
2022-11-23T11:57:48.550Z,7.10
2022-11-23T12:08:49.535Z,7.30
2022-11-23T12:19:53.537Z,7.69
2022-11-23T12:30:45.628Z,7.79
2022-11-23T12:41:41.137Z,7.59
2022-11-23T12:52:43.265Z,7.30
2022-11-23T13:03:39.096Z,7.20
2022-11-23T13:14:41.320Z,7.40
2022-11-23T13:25:43.739Z,7.40
2022-11-23T13:47:51.985Z,7.30
2022-11-23T13:58:30.566Z,7.01
2022-11-23T14:09:14.963Z,6.81
2022-11-23T14:19:56.036Z,6.61
2022-11-23T14:30:44.932Z,6.61
2022-11-23T14:41:45.401Z,6.91
2022-11-23T14:52:48.149Z,6.42
2022-11-23T15:03:55.010Z,6.03
2022-11-23T15:15:01.810Z,5.64
2022-11-23T15:26:41.969Z,5.54
2022-11-23T15:37:18.794Z,5.34
2022-11-23T15:48:25.872Z,5.15
2022-11-23T15:59:13.659Z,4.95
2022-11-23T16:10:22.553Z,4.85
2022-11-23T16:21:36.844Z,4.66
2022-11-23T16:32:44.802Z,4.36
2022-11-23T16:43:49.425Z,4.17
2022-11-23T16:54:59.554Z,3.88
2022-11-23T17:06:19.799Z,3.97
2022-11-23T17:17:35.244Z,3.97
